WAT3630 SAZR-SADF
Flight info
| Callsign | WAT3630 |
|---|---|
| Flight time | N/A |
| Altitude | 7000 |
| Route | TIMKU2G/19 TIMKU W73 IRASU W68 ASADA DCT TRINI DCT VUKMI DCT EVTEL DCT OGMIM |
| Aircraft | BE58/L-SDFGRY/C |
Departure
| Time | N/A |
|---|---|
| Airport | Santa Rosa Airport (SAZR) |
Arrival
| Time | 2026-04-25 18:25 |
|---|---|
| Airport | San Fernando Airport (SADF) |
| Time | Latitude | Longitude | Altitude | Speed | Heading |
|---|---|---|---|---|---|
| 2026-04-25 17:42 | -35.04617 | -59.68613 | 6971 ft | 183 kts | 68° |
| 2026-04-25 18:02 | -35.04321 | -59.67738 | 6973 ft | 183 kts | 68° |
| 2026-04-25 18:02 | -35.03757 | -59.66358 | 6975 ft | 183 kts | 58° |
| 2026-04-25 18:02 | -35.03082 | -59.65035 | 6975 ft | 183 kts | 57° |
| 2026-04-25 18:02 | -35.02394 | -59.63724 | 6978 ft | 183 kts | 56° |
| 2026-04-25 18:03 | -35.01706 | -59.62425 | 6976 ft | 183 kts | 56° |
| 2026-04-25 18:03 | -35.01011 | -59.61124 | 6974 ft | 183 kts | 56° |
| 2026-04-25 18:03 | -35.00314 | -59.59823 | 6976 ft | 183 kts | 56° |
| 2026-04-25 18:03 | -34.99610 | -59.58513 | 6975 ft | 183 kts | 56° |
| 2026-04-25 18:04 | -34.98916 | -59.57225 | 6976 ft | 183 kts | 56° |
| 2026-04-25 18:04 | -34.98211 | -59.55917 | 6975 ft | 183 kts | 56° |
| 2026-04-25 18:04 | -34.97512 | -59.54620 | 6976 ft | 183 kts | 56° |
| 2026-04-25 18:04 | -34.97096 | -59.53849 | 6979 ft | 183 kts | 56° |
| 2026-04-25 18:05 | -34.96391 | -59.52544 | 6979 ft | 183 kts | 56° |
| 2026-04-25 18:05 | -34.95696 | -59.51258 | 6977 ft | 183 kts | 56° |
| 2026-04-25 18:05 | -34.94994 | -59.49958 | 6975 ft | 183 kts | 56° |
| 2026-04-25 18:05 | -34.94292 | -59.48660 | 6974 ft | 183 kts | 56° |
| 2026-04-25 18:06 | -34.93592 | -59.47367 | 6973 ft | 183 kts | 56° |
| 2026-04-25 18:06 | -34.92888 | -59.46065 | 6971 ft | 183 kts | 56° |
| 2026-04-25 18:06 | -34.92188 | -59.44773 | 6969 ft | 183 kts | 56° |
| 2026-04-25 18:06 | -34.91480 | -59.43465 | 6968 ft | 184 kts | 56° |
| 2026-04-25 18:07 | -34.90778 | -59.42170 | 6967 ft | 184 kts | 57° |
| 2026-04-25 18:07 | -34.90068 | -59.40860 | 6962 ft | 184 kts | 56° |
| 2026-04-25 18:07 | -34.89371 | -59.39574 | 6960 ft | 183 kts | 57° |
| 2026-04-25 18:07 | -34.88670 | -59.38280 | 6956 ft | 183 kts | 57° |
| 2026-04-25 18:08 | -34.87965 | -59.36982 | 6957 ft | 182 kts | 56° |
| 2026-04-25 18:08 | -34.87270 | -59.35701 | 6958 ft | 182 kts | 56° |
| 2026-04-25 18:08 | -34.86577 | -59.34423 | 6960 ft | 182 kts | 56° |
| 2026-04-25 18:08 | -34.85876 | -59.33133 | 6959 ft | 182 kts | 56° |
| 2026-04-25 18:09 | -34.85178 | -59.31849 | 6959 ft | 182 kts | 56° |
| 2026-04-25 18:09 | -34.84478 | -59.30562 | 6956 ft | 182 kts | 56° |
| 2026-04-25 18:09 | -34.83780 | -59.29278 | 6954 ft | 181 kts | 56° |
| 2026-04-25 18:09 | -34.83549 | -59.28853 | 6955 ft | 181 kts | 56° |
| 2026-04-25 18:10 | -34.82394 | -59.26730 | 6955 ft | 180 kts | 56° |
| 2026-04-25 18:10 | -34.81700 | -59.25455 | 6954 ft | 180 kts | 56° |
| 2026-04-25 18:10 | -34.81004 | -59.24176 | 6954 ft | 180 kts | 56° |
| 2026-04-25 18:10 | -34.80311 | -59.22904 | 6953 ft | 180 kts | 56° |
| 2026-04-25 18:11 | -34.79620 | -59.21637 | 6952 ft | 180 kts | 56° |
| 2026-04-25 18:11 | -34.78933 | -59.20377 | 6952 ft | 180 kts | 56° |
| 2026-04-25 18:11 | -34.78233 | -59.19094 | 6951 ft | 180 kts | 56° |
| 2026-04-25 18:11 | -34.77548 | -59.17837 | 6954 ft | 179 kts | 56° |
| 2026-04-25 18:12 | -34.76854 | -59.16565 | 6953 ft | 180 kts | 56° |
| 2026-04-25 18:12 | -34.76170 | -59.15313 | 6954 ft | 180 kts | 56° |
| 2026-04-25 18:12 | -34.75478 | -59.14046 | 6954 ft | 180 kts | 56° |
| 2026-04-25 18:12 | -34.74775 | -59.12758 | 6952 ft | 180 kts | 56° |
| 2026-04-25 18:13 | -34.74088 | -59.11500 | 6951 ft | 180 kts | 56° |
| 2026-04-25 18:13 | -34.73389 | -59.10221 | 6953 ft | 180 kts | 56° |
| 2026-04-25 18:13 | -34.72698 | -59.08958 | 6952 ft | 180 kts | 56° |
| 2026-04-25 18:14 | -34.71316 | -59.06431 | 6955 ft | 180 kts | 56° |
| 2026-04-25 18:14 | -34.70620 | -59.05157 | 6954 ft | 180 kts | 56° |
| 2026-04-25 18:14 | -34.69924 | -59.03887 | 6957 ft | 180 kts | 56° |
| 2026-04-25 18:14 | -34.69233 | -59.02625 | 6961 ft | 180 kts | 56° |
| 2026-04-25 18:15 | -34.68541 | -59.01362 | 6957 ft | 180 kts | 56° |
| 2026-04-25 18:15 | -34.67845 | -59.00093 | 6951 ft | 180 kts | 56° |
| 2026-04-25 18:15 | -34.67153 | -58.98832 | 6960 ft | 180 kts | 56° |
| 2026-04-25 18:15 | -34.66457 | -58.97561 | 6961 ft | 181 kts | 56° |
| 2026-04-25 18:16 | -34.65757 | -58.96286 | 6961 ft | 181 kts | 56° |
| 2026-04-25 18:16 | -34.65064 | -58.95022 | 6954 ft | 176 kts | 56° |
| 2026-04-25 18:16 | -34.63739 | -58.92609 | 6639 ft | 170 kts | 56° |
| 2026-04-25 18:17 | -34.63084 | -58.91420 | 6456 ft | 170 kts | 57° |
| 2026-04-25 18:17 | -34.62424 | -58.90218 | 6271 ft | 169 kts | 57° |
| 2026-04-25 18:17 | -34.61983 | -58.89417 | 6149 ft | 169 kts | 57° |
| 2026-04-25 18:17 | -34.61332 | -58.88233 | 5967 ft | 169 kts | 57° |
| 2026-04-25 18:18 | -34.60678 | -58.87044 | 5790 ft | 168 kts | 57° |
| 2026-04-25 18:18 | -34.60031 | -58.85868 | 5613 ft | 167 kts | 57° |
| 2026-04-25 18:18 | -34.59388 | -58.84700 | 5437 ft | 167 kts | 57° |
| 2026-04-25 18:18 | -34.58743 | -58.83528 | 5260 ft | 166 kts | 57° |
| 2026-04-25 18:19 | -34.58107 | -58.82376 | 5086 ft | 165 kts | 57° |
| 2026-04-25 18:19 | -34.57460 | -58.81201 | 4862 ft | 168 kts | 57° |
| 2026-04-25 18:19 | -34.56810 | -58.80022 | 4637 ft | 168 kts | 57° |
| 2026-04-25 18:19 | -34.56312 | -58.78762 | 4398 ft | 166 kts | 80° |
| 2026-04-25 18:20 | -34.56179 | -58.77377 | 4147 ft | 165 kts | 87° |
| 2026-04-25 18:20 | -34.56094 | -58.75997 | 3895 ft | 166 kts | 88° |
| 2026-04-25 18:20 | -34.56010 | -58.74606 | 3645 ft | 165 kts | 87° |
| 2026-04-25 18:20 | -34.55925 | -58.73221 | 3398 ft | 164 kts | 87° |
| 2026-04-25 18:21 | -34.55835 | -58.71843 | 3149 ft | 164 kts | 83° |
| 2026-04-25 18:21 | -34.55312 | -58.70642 | 2880 ft | 165 kts | 47° |
| 2026-04-25 18:21 | -34.54481 | -58.69667 | 2633 ft | 165 kts | 44° |
| 2026-04-25 18:21 | -34.53668 | -58.68700 | 2392 ft | 165 kts | 45° |
| 2026-04-25 18:22 | -34.52844 | -58.67725 | 2150 ft | 160 kts | 45° |
| 2026-04-25 18:22 | -34.52581 | -58.67417 | 2059 ft | 153 kts | 45° |
| 2026-04-25 18:22 | -34.51400 | -58.66034 | 1617 ft | 130 kts | 45° |
| 2026-04-25 18:22 | -34.50779 | -58.65305 | 1407 ft | 121 kts | 45° |
| 2026-04-25 18:23 | -34.50191 | -58.64617 | 1203 ft | 113 kts | 44° |
| 2026-04-25 18:23 | -34.49633 | -58.63964 | 1041 ft | 108 kts | 44° |
| 2026-04-25 18:23 | -34.49108 | -58.63350 | 896 ft | 103 kts | 44° |
| 2026-04-25 18:23 | -34.48599 | -58.62754 | 756 ft | 100 kts | 44° |
| 2026-04-25 18:24 | -34.48103 | -58.62174 | 623 ft | 96 kts | 43° |
| 2026-04-25 18:24 | -34.47631 | -58.61624 | 499 ft | 94 kts | 43° |
| 2026-04-25 18:24 | -34.47161 | -58.61076 | 378 ft | 92 kts | 43° |
| 2026-04-25 18:24 | -34.46692 | -58.60531 | 257 ft | 93 kts | 43° |
| 2026-04-25 18:25 | -34.46208 | -58.59986 | 113 ft | 95 kts | 43° |
| 2026-04-25 18:25 | -34.45736 | -58.59423 | 13 ft | 92 kts | 44° |
| 2026-04-25 18:25 | -34.45347 | -58.58967 | 11 ft | 67 kts | 44° |
| 2026-04-25 18:25 | -34.45061 | -58.58637 | 10 ft | 36 kts | 45° |
| 2026-04-25 18:26 | -34.44896 | -58.58443 | 10 ft | 26 kts | 45° |
| 2026-04-25 18:26 | -34.44852 | -58.58369 | 10 ft | 19 kts | 70° |
| 2026-04-25 18:26 | -34.44926 | -58.58258 | 10 ft | 19 kts | 149° |
| 2026-04-25 18:26 | -34.45039 | -58.58181 | 10 ft | 15 kts | 142° |
| 2026-04-25 18:27 | -34.45154 | -58.58091 | 10 ft | 20 kts | 150° |
| 2026-04-25 18:27 | -34.45276 | -58.58006 | 10 ft | 19 kts | 146° |
| 2026-04-25 18:27 | -34.45328 | -58.57979 | 10 ft | 6 kts | 220° |
| 2026-04-25 18:27 | -34.45353 | -58.58028 | 10 ft | 7 kts | 241° |
| 2026-04-25 18:28 | -34.45379 | -58.58084 | 10 ft | 7 kts | 241° |
| 2026-04-25 18:28 | -34.45422 | -58.58085 | 10 ft | 7 kts | 169° |
| 2026-04-25 18:28 | -34.45436 | -58.58088 | 10 ft | 0 kts | 203° |